Time;durP1;ratioP1;P1;durP2;ratioP2;P2;SDS_P1;SDS_P2;PMS_P1;PMS_P2;Temp;Humidity;BMP_temperature;BMP_pressure;BME280_temperature;BME280_humidity;BME280_pressure;Samples;Min_cycle;Max_cycle;Signal;HPM_P1;HPM_P2
2022/03/04 00:01:29;;;;;;;14.45;9.23;;;3.50;99.90;;;;;;5073364;28;20413;-77
2022/03/04 00:03:55;;;;;;;14.43;9.38;;;3.50;99.90;;;;;;5073640;28;20040;-77
2022/03/04 00:06:20;;;;;;;15.13;9.07;;;3.50;99.90;;;;;;5073141;28;20086;-77
2022/03/04 00:08:46;;;;;;;12.95;9.32;;;3.50;99.90;;;;;;5040080;28;20094;-77
2022/03/04 00:11:12;;;;;;;15.23;10.00;;;3.50;99.90;;;;;;5039980;28;20055;-77
2022/03/04 00:13:38;;;;;;;14.02;9.65;;;3.40;99.90;;;;;;5039880;28;20090;-77
2022/03/04 00:16:04;;;;;;;15.70;9.88;;;3.40;99.90;;;;;;5039715;28;20042;-77
2022/03/04 00:18:29;;;;;;;14.13;9.45;;;3.40;99.90;;;;;;5056717;28;20052;-77
2022/03/04 00:20:55;;;;;;;17.10;9.77;;;3.40;99.90;;;;;;5039884;28;20055;-77
2022/03/04 00:23:20;;;;;;;13.70;9.32;;;3.40;99.90;;;;;;5056863;28;20508;-77
2022/03/04 00:25:47;;;;;;;14.63;9.93;;;3.30;99.90;;;;;;5056282;28;20036;-77
2022/03/04 00:28:12;;;;;;;16.02;9.25;;;3.30;99.90;;;;;;5056050;28;20072;-77
2022/03/04 00:30:38;;;;;;;14.68;9.48;;;3.30;99.90;;;;;;5056414;28;20083;-77
2022/03/04 00:33:04;;;;;;;15.45;9.30;;;3.30;99.90;;;;;;5039527;28;20555;-77
2022/03/04 00:35:30;;;;;;;13.80;9.63;;;3.30;99.90;;;;;;5056373;28;20048;-77
2022/03/04 00:37:55;;;;;;;14.80;10.15;;;3.20;99.90;;;;;;5056217;28;20408;-77
2022/03/04 00:40:21;;;;;;;16.27;9.77;;;3.20;99.90;;;;;;5039304;28;20519;-77
2022/03/04 00:42:47;;;;;;;15.98;9.50;;;3.20;99.90;;;;;;5039562;28;20072;-77
2022/03/04 00:45:13;;;;;;;14.95;9.30;;;3.20;99.90;;;;;;5055835;28;20036;-77
2022/03/04 00:47:38;;;;;;;13.77;9.63;;;3.10;99.90;;;;;;5055806;28;20032;-77
2022/03/04 00:50:06;;;;;;;12.57;8.50;;;3.10;99.90;;;;;;5038735;28;20044;-77
2022/03/04 00:52:31;;;;;;;16.52;9.23;;;3.10;99.90;;;;;;5039350;28;20064;-77
2022/03/04 00:54:57;;;;;;;16.10;9.73;;;3.10;99.90;;;;;;5055727;28;20049;-77
2022/03/04 00:57:23;;;;;;;15.65;9.60;;;3.10;99.90;;;;;;5055994;28;20082;-77
2022/03/04 00:59:48;;;;;;;16.98;10.38;;;3.00;99.90;;;;;;5039046;28;20485;-77
2022/03/04 01:02:14;;;;;;;15.57;9.15;;;3.00;99.90;;;;;;5055519;28;20119;-77
2022/03/04 01:04:39;;;;;;;15.90;9.63;;;3.00;99.90;;;;;;5039263;28;20114;-77
2022/03/04 01:07:05;;;;;;;16.23;10.23;;;3.00;99.90;;;;;;5059754;28;20048;-77
2022/03/04 01:09:31;;;;;;;13.88;9.60;;;3.00;99.90;;;;;;5055540;28;20075;-77
2022/03/04 01:11:57;;;;;;;13.85;10.15;;;3.00;99.90;;;;;;5072155;28;20063;-77
2022/03/04 01:14:23;;;;;;;15.73;10.05;;;2.90;99.90;;;;;;5055404;28;20041;-77
2022/03/04 01:16:49;;;;;;;14.23;9.82;;;2.90;99.90;;;;;;5072057;28;20036;-77
2022/03/04 01:19:14;;;;;;;15.65;9.75;;;2.90;99.90;;;;;;5072320;28;20040;-77
2022/03/04 01:21:40;;;;;;;17.52;10.38;;;2.80;99.90;;;;;;5055233;28;20041;-77
2022/03/04 01:24:07;;;;;;;14.52;10.27;;;2.80;99.90;;;;;;5072012;28;20037;-77
2022/03/04 01:26:32;;;;;;;17.15;10.52;;;2.80;99.90;;;;;;5071898;28;20048;-77
2022/03/04 01:28:58;;;;;;;15.40;10.02;;;2.70;99.90;;;;;;5055322;28;20036;-77
2022/03/04 01:31:24;;;;;;;16.10;9.57;;;2.70;99.90;;;;;;5055198;28;20404;-77
2022/03/04 01:33:50;;;;;;;16.17;9.75;;;2.70;99.90;;;;;;5071805;28;20040;-77
2022/03/04 01:36:15;;;;;;;16.63;10.43;;;2.60;99.90;;;;;;5071827;28;20068;-77
2022/03/04 01:38:41;;;;;;;14.50;10.48;;;2.60;99.90;;;;;;5072423;28;20036;-77
2022/03/04 01:41:07;;;;;;;14.02;10.48;;;2.60;99.90;;;;;;5071778;28;20575;-77
2022/03/04 01:43:32;;;;;;;15.38;10.38;;;2.60;99.90;;;;;;5055143;28;20032;-77
2022/03/04 01:46:10;;;;;;;16.50;11.20;;;2.50;99.90;;;;;;5055060;28;20454;-77
2022/03/04 01:48:35;;;;;;;17.40;10.90;;;2.50;99.90;;;;;;5055048;28;20047;-77
2022/03/04 01:51:01;;;;;;;16.58;11.45;;;2.40;99.90;;;;;;5055320;28;20040;-77
2022/03/04 01:53:27;;;;;;;16.30;11.20;;;2.40;99.90;;;;;;5054954;28;20048;-77
2022/03/04 01:55:52;;;;;;;18.55;10.77;;;2.40;99.90;;;;;;5071662;28;20408;-77
2022/03/04 01:58:18;;;;;;;16.58;11.38;;;2.30;99.90;;;;;;5071708;28;20079;-77
2022/03/04 02:00:43;;;;;;;17.70;10.77;;;2.30;99.90;;;;;;5054953;28;20036;-77
2022/03/04 02:03:10;;;;;;;19.02;11.20;;;2.30;99.90;;;;;;5074464;28;20047;-77
2022/03/04 02:05:36;;;;;;;17.75;11.00;;;2.30;99.90;;;;;;5058971;28;20492;-77
2022/03/04 02:08:02;;;;;;;16.77;11.07;;;2.20;99.90;;;;;;5075421;28;20107;-77
2022/03/04 02:10:27;;;;;;;17.83;11.02;;;2.20;99.90;;;;;;5058966;28;20048;-77
2022/03/04 02:12:53;;;;;;;16.10;11.30;;;2.10;99.90;;;;;;5075798;28;20135;-77
2022/03/04 02:15:19;;;;;;;18.00;11.70;;;2.10;99.90;;;;;;5058726;28;20044;-77
2022/03/04 02:17:44;;;;;;;17.88;11.70;;;2.10;99.90;;;;;;5058710;28;20040;-77
2022/03/04 02:20:10;;;;;;;18.02;11.07;;;2.10;99.90;;;;;;5075356;28;20037;-77
2022/03/04 02:22:36;;;;;;;20.00;12.35;;;2.10;99.90;;;;;;5075285;28;20403;-77
2022/03/04 02:25:05;;;;;;;21.10;12.57;;;2.00;99.90;;;;;;5075293;28;20036;-77
2022/03/04 02:27:31;;;;;;;20.80;11.95;;;2.00;99.90;;;;;;5058574;28;20037;-77
2022/03/04 02:29:57;;;;;;;19.20;12.27;;;1.90;99.90;;;;;;5075546;28;20078;-77
2022/03/04 02:32:23;;;;;;;18.48;11.95;;;1.90;99.90;;;;;;5058489;28;20032;-77
2022/03/04 02:34:48;;;;;;;20.92;12.25;;;1.80;99.90;;;;;;5058629;28;20041;-77
2022/03/04 02:37:15;;;;;;;19.90;12.25;;;1.80;99.90;;;;;;5058574;28;20033;-77
2022/03/04 02:39:41;;;;;;;19.70;12.77;;;1.80;99.90;;;;;;5074969;28;20048;-77
2022/03/04 02:42:06;;;;;;;18.45;12.20;;;1.80;99.90;;;;;;5074855;28;20036;-77
2022/03/04 02:44:32;;;;;;;19.70;12.00;;;1.80;99.90;;;;;;5058457;28;20532;-77
2022/03/04 02:46:57;;;;;;;19.13;12.55;;;1.70;99.90;;;;;;5075063;28;20045;-77
2022/03/04 02:49:23;;;;;;;22.10;13.32;;;1.70;99.90;;;;;;5058435;28;20065;-77
2022/03/04 02:51:48;;;;;;;20.15;12.45;;;1.70;99.90;;;;;;5074789;28;20124;-77
2022/03/04 02:54:14;;;;;;;22.73;12.05;;;1.70;99.90;;;;;;5074691;28;20045;-77
2022/03/04 02:56:41;;;;;;;20.70;12.65;;;1.70;99.90;;;;;;5058182;28;20108;-77
2022/03/04 02:59:06;;;;;;;20.90;12.85;;;1.70;99.90;;;;;;5057919;28;20409;-77
2022/03/04 03:01:32;;;;;;;19.83;12.65;;;1.60;99.90;;;;;;5057882;28;20036;-77
2022/03/04 03:03:58;;;;;;;21.15;12.05;;;1.60;99.90;;;;;;5074603;28;20039;-77
2022/03/04 03:06:23;;;;;;;20.90;12.45;;;1.60;99.90;;;;;;5074227;28;20043;-77
2022/03/04 03:08:49;;;;;;;21.83;13.75;;;1.60;99.90;;;;;;5041244;28;20188;-77
2022/03/04 03:11:15;;;;;;;21.05;13.00;;;1.60;99.90;;;;;;5057760;28;20052;-77
2022/03/04 03:13:40;;;;;;;20.35;12.73;;;1.50;99.90;;;;;;5040910;28;20135;-77
2022/03/04 03:16:06;;;;;;;24.50;12.95;;;1.50;99.90;;;;;;5057590;28;20496;-77
2022/03/04 03:18:32;;;;;;;22.88;12.60;;;1.50;99.90;;;;;;5041000;28;20036;-77
2022/03/04 03:20:57;;;;;;;21.00;12.95;;;1.50;99.90;;;;;;5040917;28;20086;-77
2022/03/04 03:23:23;;;;;;;21.45;13.30;;;1.40;99.90;;;;;;5040978;28;20032;-77
2022/03/04 03:25:48;;;;;;;22.38;13.60;;;1.40;99.90;;;;;;5041149;28;20032;-77
2022/03/04 03:28:14;;;;;;;20.00;12.48;;;1.40;99.90;;;;;;5057664;28;20037;-77
2022/03/04 03:30:40;;;;;;;19.30;12.63;;;1.30;99.90;;;;;;5040986;28;20036;-77
2022/03/04 03:33:05;;;;;;;21.92;14.02;;;1.30;99.90;;;;;;5041036;28;20492;-77
2022/03/04 03:35:31;;;;;;;22.60;13.38;;;1.30;99.90;;;;;;5057464;28;20036;-77
2022/03/04 03:37:56;;;;;;;21.30;13.55;;;1.30;99.90;;;;;;5057199;28;20040;-77
2022/03/04 03:40:22;;;;;;;22.00;14.05;;;1.30;99.90;;;;;;5040563;28;20153;-77
2022/03/04 03:42:48;;;;;;;24.85;14.38;;;1.30;99.90;;;;;;5040554;28;20039;-77
2022/03/04 03:45:13;;;;;;;20.65;13.65;;;1.30;99.90;;;;;;5040601;28;20040;-77
2022/03/04 03:47:40;;;;;;;23.40;14.57;;;1.20;99.90;;;;;;5040682;28;20044;-77
2022/03/04 03:50:09;;;;;;;22.73;13.98;;;1.20;99.90;;;;;;5040342;28;20036;-77
2022/03/04 03:52:35;;;;;;;22.80;13.82;;;1.20;99.90;;;;;;5057181;28;20405;-77
2022/03/04 03:55:00;;;;;;;25.15;15.70;;;1.20;99.90;;;;;;5040312;28;20043;-77
2022/03/04 03:57:26;;;;;;;23.30;14.43;;;1.10;99.90;;;;;;5040281;28;20066;-77
2022/03/04 03:59:52;;;;;;;27.83;15.77;;;1.10;99.90;;;;;;5040280;28;20123;-77
2022/03/04 04:02:17;;;;;;;24.80;15.23;;;1.10;99.90;;;;;;5056782;28;20040;-77
2022/03/04 04:04:44;;;;;;;24.45;15.15;;;1.10;99.90;;;;;;5040145;28;20393;-77
2022/03/04 04:07:12;;;;;;;24.38;14.73;;;1.00;99.90;;;;;;5044719;28;20036;-77
2022/03/04 04:09:38;;;;;;;23.08;15.07;;;1.00;99.90;;;;;;5056576;28;20082;-77
2022/03/04 04:12:04;;;;;;;24.42;14.90;;;1.00;99.90;;;;;;5056603;28;20047;-77
2022/03/04 04:14:30;;;;;;;23.23;14.93;;;1.00;99.90;;;;;;5073417;28;20076;-77
2022/03/04 04:16:56;;;;;;;25.15;14.98;;;0.90;99.90;;;;;;5056375;28;20499;-77
2022/03/04 04:19:23;;;;;;;22.60;14.63;;;0.90;99.90;;;;;;5073061;28;20119;-77
2022/03/04 04:21:50;;;;;;;27.98;15.65;;;0.90;99.90;;;;;;5073018;28;20044;-77
2022/03/04 04:24:15;;;;;;;23.70;14.05;;;0.90;99.90;;;;;;5072334;28;20041;-77
2022/03/04 04:26:42;;;;;;;25.10;15.95;;;0.90;99.90;;;;;;5072737;28;20047;-77
2022/03/04 04:29:07;;;;;;;25.10;15.25;;;0.80;99.90;;;;;;5056538;28;20075;-77
2022/03/04 04:31:33;;;;;;;25.25;15.98;;;0.80;99.90;;;;;;5056212;28;20071;-77
2022/03/04 04:34:00;;;;;;;27.60;17.00;;;0.80;99.90;;;;;;5056131;28;20047;-77
2022/03/04 04:36:26;;;;;;;27.83;17.65;;;0.80;99.90;;;;;;5055993;28;20052;-77
2022/03/04 04:38:52;;;;;;;24.38;16.23;;;0.70;99.90;;;;;;5056054;28;20052;-77
2022/03/04 04:41:18;;;;;;;26.60;17.15;;;0.70;99.90;;;;;;5056091;28;20040;-77
2022/03/04 04:43:44;;;;;;;26.17;17.38;;;0.70;99.90;;;;;;5072922;28;20040;-77
2022/03/04 04:46:10;;;;;;;27.75;17.63;;;0.70;99.90;;;;;;5072462;28;20075;-77
2022/03/04 04:48:36;;;;;;;33.15;19.25;;;0.70;99.90;;;;;;5055904;28;20044;-77
2022/03/04 04:51:02;;;;;;;28.23;17.67;;;0.80;99.90;;;;;;5055801;28;20039;-77
2022/03/04 04:53:28;;;;;;;31.33;19.08;;;0.70;99.90;;;;;;5055802;28;20036;-77
2022/03/04 04:55:54;;;;;;;27.42;17.85;;;0.70;99.90;;;;;;5055689;28;20043;-77
2022/03/04 04:58:19;;;;;;;29.52;18.17;;;0.70;99.90;;;;;;5055693;28;20042;-77
2022/03/04 05:00:50;;;;;;;30.48;18.83;;;0.70;99.90;;;;;;5072290;28;20048;-77
2022/03/04 05:03:16;;;;;;;31.17;18.77;;;0.70;99.90;;;;;;5072338;28;20500;-77
2022/03/04 05:05:41;;;;;;;30.45;18.88;;;0.70;99.90;;;;;;5055604;28;20043;-77
2022/03/04 05:08:07;;;;;;;29.67;19.27;;;0.70;99.90;;;;;;5072098;28;20122;-77
2022/03/04 05:10:33;;;;;;;30.10;18.65;;;0.70;99.90;;;;;;5072173;28;20040;-77
2022/03/04 05:12:59;;;;;;;33.05;19.88;;;0.70;99.90;;;;;;5055467;28;20045;-77
2022/03/04 05:15:24;;;;;;;33.58;20.48;;;0.70;99.90;;;;;;5055713;28;20047;-77
2022/03/04 05:17:52;;;;;;;32.83;20.63;;;0.70;99.90;;;;;;5055866;28;20483;-77
2022/03/04 05:20:18;;;;;;;30.52;20.33;;;0.70;99.90;;;;;;5055343;28;20040;-77
2022/03/04 05:22:44;;;;;;;32.70;20.35;;;0.70;99.90;;;;;;5072069;28;20043;-77
2022/03/04 05:25:10;;;;;;;33.13;20.90;;;0.70;99.90;;;;;;5055627;28;20146;-77
2022/03/04 05:27:36;;;;;;;34.03;21.33;;;0.70;99.90;;;;;;5072226;28;20043;-77
2022/03/04 05:30:02;;;;;;;36.10;22.20;;;0.70;99.90;;;;;;5055279;28;20385;-77
2022/03/04 05:32:27;;;;;;;28.85;19.77;;;0.70;99.90;;;;;;5072227;28;20086;-77
2022/03/04 05:34:53;;;;;;;35.63;22.17;;;0.70;99.90;;;;;;5055600;28;20041;-77
2022/03/04 05:37:18;;;;;;;34.03;22.83;;;0.70;99.90;;;;;;5071794;28;20035;-77
2022/03/04 05:39:44;;;;;;;33.92;22.02;;;0.70;99.90;;;;;;5071865;28;20090;-77
2022/03/04 05:42:10;;;;;;;34.72;21.73;;;0.60;99.90;;;;;;5071742;28;20040;-77
2022/03/04 05:44:35;;;;;;;35.28;23.05;;;0.60;99.90;;;;;;5071782;28;20036;-77
2022/03/04 05:47:01;;;;;;;34.83;22.80;;;0.60;99.90;;;;;;5071675;28;20400;-77
2022/03/04 05:49:26;;;;;;;33.95;21.92;;;0.60;99.90;;;;;;5055046;28;20040;-77
2022/03/04 05:51:52;;;;;;;34.17;21.90;;;0.60;99.90;;;;;;5071683;28;20041;-77
2022/03/04 05:54:18;;;;;;;36.35;22.77;;;0.60;99.90;;;;;;5055184;28;20043;-77
2022/03/04 05:56:43;;;;;;;37.17;21.52;;;0.60;99.90;;;;;;5071579;28;20510;-77
2022/03/04 05:59:09;;;;;;;34.03;21.92;;;0.60;99.90;;;;;;5071713;28;20467;-77
2022/03/04 06:01:35;;;;;;;35.38;22.85;;;0.60;99.90;;;;;;5071541;28;20041;-77
2022/03/04 06:04:00;;;;;;;35.28;22.40;;;0.60;99.90;;;;;;5071620;28;20135;-77
2022/03/04 06:06:26;;;;;;;33.88;21.63;;;0.60;99.90;;;;;;5054684;28;20048;-77
2022/03/04 06:08:52;;;;;;;35.85;23.02;;;0.60;99.90;;;;;;5039098;28;20032;-77
2022/03/04 06:11:19;;;;;;;33.70;21.65;;;0.60;99.90;;;;;;5054776;28;20462;-77
2022/03/04 06:13:45;;;;;;;38.42;22.52;;;0.60;99.90;;;;;;5054786;28;20047;-77
2022/03/04 06:16:11;;;;;;;34.65;21.95;;;0.60;99.90;;;;;;5038190;28;20042;-77
2022/03/04 06:18:37;;;;;;;33.88;21.77;;;0.60;99.90;;;;;;5038152;28;20037;-77
2022/03/04 06:21:03;;;;;;;35.08;22.70;;;0.60;99.90;;;;;;5054584;28;20037;-77
2022/03/04 06:23:29;;;;;;;30.27;21.00;;;0.60;99.90;;;;;;5039006;28;20032;-77
2022/03/04 06:25:55;;;;;;;33.80;21.90;;;0.60;99.90;;;;;;5055399;28;20036;-77
2022/03/04 06:28:21;;;;;;;30.90;20.58;;;0.70;99.90;;;;;;5055634;28;20044;-77
2022/03/04 06:30:47;;;;;;;35.67;22.67;;;0.70;99.90;;;;;;5039115;28;20044;-77
2022/03/04 06:33:31;;;;;;;36.08;22.75;;;0.70;99.90;;;;;;5038610;28;20040;-77
2022/03/04 06:35:59;;;;;;;;;;;0.80;99.90;;;;;;5039545;28;20454;-77
2022/03/04 06:38:24;;;;;;;34.28;21.55;;;0.80;99.90;;;;;;5055615;28;19921;-77
2022/03/04 06:40:51;;;;;;;36.47;22.25;;;0.70;99.90;;;;;;5055564;28;20040;-77
2022/03/04 06:43:17;;;;;;;30.45;20.88;;;0.80;99.90;;;;;;5039964;28;20032;-77
2022/03/04 06:45:44;;;;;;;34.08;21.73;;;0.80;99.90;;;;;;5038965;28;20059;-77
2022/03/04 06:48:11;;;;;;;34.95;21.80;;;0.80;99.90;;;;;;5039824;28;20036;-77
2022/03/04 06:50:36;;;;;;;38.83;22.25;;;0.80;99.90;;;;;;5059187;28;20059;-77
2022/03/04 06:53:02;;;;;;;35.20;23.60;;;0.80;99.90;;;;;;5042129;28;20044;-77
2022/03/04 06:55:28;;;;;;;35.58;21.55;;;0.80;99.90;;;;;;5058952;28;20040;-77
2022/03/04 06:57:55;;;;;;;33.75;22.30;;;0.80;99.90;;;;;;5042356;28;20086;-77
2022/03/04 07:00:22;;;;;;;40.28;23.65;;;0.80;99.90;;;;;;5042393;28;20088;-77
2022/03/04 07:02:47;;;;;;;38.75;24.02;;;0.80;99.90;;;;;;5058270;28;20037;-77
2022/03/04 07:05:14;;;;;;;36.20;23.02;;;0.80;99.90;;;;;;5058587;28;20102;-77
2022/03/04 07:07:40;;;;;;;37.33;23.40;;;0.80;99.90;;;;;;5067931;28;20036;-77
2022/03/04 07:10:07;;;;;;;39.80;23.65;;;0.80;99.90;;;;;;5058260;28;20073;-77
2022/03/04 07:12:32;;;;;;;36.63;23.08;;;0.80;99.90;;;;;;5074994;28;20446;-77
2022/03/04 07:14:58;;;;;;;35.10;23.63;;;0.80;99.90;;;;;;5058666;28;20044;-77
2022/03/04 07:17:23;;;;;;;40.33;23.92;;;0.80;99.90;;;;;;5058163;28;20045;-77
2022/03/04 07:19:49;;;;;;;36.25;23.27;;;0.80;99.90;;;;;;5057962;28;20040;-77
2022/03/04 07:22:15;;;;;;;35.30;22.33;;;0.80;99.90;;;;;;5074344;28;20036;-77
2022/03/04 07:24:41;;;;;;;38.63;24.15;;;0.80;99.90;;;;;;5057880;28;20067;-77
2022/03/04 07:27:06;;;;;;;37.40;23.20;;;0.80;99.90;;;;;;5057718;28;20036;-76
2022/03/04 07:29:32;;;;;;;37.97;23.02;;;0.90;99.90;;;;;;5057663;28;20040;-76
2022/03/04 07:31:58;;;;;;;34.90;22.70;;;0.90;99.90;;;;;;5058053;28;20043;-76
2022/03/04 07:34:24;;;;;;;38.42;23.60;;;0.90;99.90;;;;;;5058374;28;20044;-76
2022/03/04 07:36:51;;;;;;;33.63;21.77;;;1.00;99.90;;;;;;5074303;28;20032;-77
2022/03/04 07:39:17;;;;;;;35.65;23.02;;;1.00;99.90;;;;;;5074320;28;20428;-77
2022/03/04 07:41:43;;;;;;;36.90;23.52;;;1.10;99.90;;;;;;5074396;28;20048;-76
2022/03/04 07:44:10;;;;;;;33.53;22.25;;;1.10;99.90;;;;;;5074326;28;20117;-76
2022/03/04 07:46:36;;;;;;;36.50;22.92;;;1.10;99.90;;;;;;5074167;28;20228;-76
2022/03/04 07:49:05;;;;;;;35.50;23.55;;;1.10;99.90;;;;;;5057286;28;20533;-76
2022/03/04 07:51:30;;;;;;;37.85;24.27;;;1.20;99.90;;;;;;5074443;28;20089;-76
2022/03/04 07:53:56;;;;;;;36.22;22.63;;;1.20;99.90;;;;;;5059543;28;20091;-76
2022/03/04 07:56:23;;;;;;;29.60;20.70;;;1.30;99.90;;;;;;5074961;28;20516;-76
2022/03/04 07:58:49;;;;;;;31.00;21.60;;;1.20;99.90;;;;;;5074092;28;20456;-76
2022/03/04 08:01:14;;;;;;;30.90;20.77;;;1.30;99.90;;;;;;5074207;28;20129;-76
2022/03/04 08:03:40;;;;;;;31.80;20.08;;;1.30;99.90;;;;;;5074414;28;20382;-77
2022/03/04 08:06:06;;;;;;;32.03;20.80;;;1.30;99.90;;;;;;5073730;28;20037;-77
2022/03/04 08:08:31;;;;;;;29.85;20.15;;;1.30;99.90;;;;;;5073731;28;20082;-76
2022/03/04 08:10:57;;;;;;;33.25;21.13;;;1.40;99.90;;;;;;5073314;28;20044;-74
2022/03/04 08:13:22;;;;;;;27.25;19.30;;;1.40;99.90;;;;;;5056650;28;20036;-77
2022/03/04 08:15:48;;;;;;;29.42;19.98;;;1.30;99.90;;;;;;5073191;28;20042;-77
2022/03/04 08:18:14;;;;;;;31.40;19.77;;;1.30;99.90;;;;;;5056415;28;20112;-77
2022/03/04 08:20:39;;;;;;;32.00;20.98;;;1.40;99.90;;;;;;5056341;28;20454;-77
2022/03/04 08:23:05;;;;;;;28.75;20.27;;;1.50;99.90;;;;;;5056727;28;20032;-77
2022/03/04 08:25:32;;;;;;;29.92;20.23;;;1.50;99.90;;;;;;5073267;28;20480;-77
2022/03/04 08:27:58;;;;;;;31.80;21.42;;;1.70;99.90;;;;;;5072803;28;20118;-77
2022/03/04 08:30:24;;;;;;;29.83;20.38;;;1.80;99.90;;;;;;5073148;28;20044;-77
2022/03/04 08:32:50;;;;;;;28.10;19.75;;;1.80;99.90;;;;;;5056247;28;20047;-76
2022/03/04 08:35:16;;;;;;;30.40;21.00;;;1.90;99.90;;;;;;5072751;28;20555;-77
2022/03/04 08:37:42;;;;;;;30.95;19.58;;;2.00;99.90;;;;;;5072662;28;20123;-77
2022/03/04 08:40:10;;;;;;;33.72;20.48;;;2.00;99.90;;;;;;5073028;28;20047;-77
2022/03/04 08:42:38;;;;;;;30.25;21.00;;;2.00;99.90;;;;;;5056525;28;20043;-77
2022/03/04 08:45:04;;;;;;;30.75;21.20;;;2.00;99.90;;;;;;5072777;28;20036;-76
2022/03/04 08:47:29;;;;;;;28.38;19.73;;;2.00;99.90;;;;;;5072778;28;20071;-76
2022/03/04 08:49:55;;;;;;;29.40;20.48;;;2.00;99.90;;;;;;5072526;28;20527;-76
2022/03/04 08:52:21;;;;;;;29.33;20.10;;;2.10;99.90;;;;;;5055962;28;20040;-76
2022/03/04 08:54:47;;;;;;;30.60;21.73;;;2.10;99.90;;;;;;5072641;28;20044;-78
2022/03/04 08:57:13;;;;;;;26.73;19.17;;;2.10;99.90;;;;;;5072966;28;20094;-79
2022/03/04 08:59:39;;;;;;;36.25;23.02;;;2.20;99.90;;;;;;5072853;28;20040;-79
2022/03/04 09:02:06;;;;;;;29.98;20.55;;;2.30;99.90;;;;;;5072499;28;20407;-79
2022/03/04 09:04:31;;;;;;;27.00;18.80;;;2.40;99.90;;;;;;5055703;28;20083;-78
2022/03/04 09:06:57;;;;;;;28.52;19.45;;;2.70;99.90;;;;;;5055885;28;20075;-78
2022/03/04 09:09:23;;;;;;;33.63;20.52;;;3.20;99.90;;;;;;5072521;28;20043;-77
2022/03/04 09:11:49;;;;;;;32.80;21.05;;;3.90;99.90;;;;;;5072240;28;20044;-77
2022/03/04 09:14:19;;;;;;;25.55;20.13;;;4.30;99.90;;;;;;5072489;28;20036;-77
2022/03/04 09:16:45;;;;;;;29.23;20.85;;;4.30;99.90;;;;;;5055555;28;20438;-77
2022/03/04 09:19:11;;;;;;;27.80;20.27;;;4.30;99.90;;;;;;5072632;28;20526;-79
2022/03/04 09:21:37;;;;;;;27.50;19.83;;;4.20;99.90;;;;;;5055699;28;20045;-78
2022/03/04 09:24:04;;;;;;;30.90;21.08;;;4.00;99.90;;;;;;5072234;28;20043;-78
2022/03/04 09:26:30;;;;;;;29.15;20.55;;;3.90;99.90;;;;;;5055704;28;20129;-78
2022/03/04 09:28:56;;;;;;;25.98;18.88;;;3.80;99.90;;;;;;5072014;28;20087;-78
2022/03/04 09:31:22;;;;;;;28.77;20.10;;;4.40;99.90;;;;;;5072628;28;20041;-79
2022/03/04 09:33:48;;;;;;;29.65;20.52;;;4.80;99.90;;;;;;5055478;28;20044;-78
2022/03/04 09:36:14;;;;;;;28.30;19.67;;;4.70;99.90;;;;;;5055652;28;20408;-79
2022/03/04 09:38:42;;;;;;;26.70;19.17;;;4.70;99.90;;;;;;5055467;28;20044;-78
2022/03/04 11:04:01;;;;;;;16.17;12.27;;;17.20;47.40;;;;;;5380211;22;20057;-75
2022/03/04 11:06:27;;;;;;;19.42;13.93;;;17.20;47.10;;;;;;5054485;28;20098;-75
2022/03/04 11:12:15;;;;;;;15.23;11.93;;;17.30;47.20;;;;;;5499067;22;20089;-74
2022/03/04 11:14:40;;;;;;;16.90;11.80;;;17.20;46.30;;;;;;5038181;28;20419;-73
2022/03/04 11:17:07;;;;;;;17.30;12.68;;;16.90;47.20;;;;;;5021497;28;20037;-73
2022/03/04 11:19:34;;;;;;;16.95;12.82;;;16.60;47.30;;;;;;5037953;28;20037;-73
2022/03/04 11:22:00;;;;;;;14.93;12.50;;;16.30;48.00;;;;;;5037855;28;20037;-75
2022/03/04 11:24:30;;;;;;;16.02;13.18;;;16.00;49.10;;;;;;5037726;28;20045;-74
2022/03/04 11:27:04;;;;;;;15.68;12.75;;;15.60;49.40;;;;;;5021312;28;20063;-74
2022/03/04 11:29:37;;;;;;;16.52;12.13;;;15.50;49.80;;;;;;5038117;28;20041;-76
2022/03/04 11:32:06;;;;;;;16.92;12.10;;;15.40;49.80;;;;;;5020964;28;20045;-76
2022/03/04 11:34:45;;;;;;;14.70;12.10;;;15.20;50.00;;;;;;5037068;28;20087;-77
2022/03/04 11:37:16;;;;;;;16.73;12.43;;;15.10;50.10;;;;;;5037628;28;20045;-77
2022/03/04 11:40:01;;;;;;;15.48;12.05;;;15.10;50.70;;;;;;5020709;28;20412;-77
2022/03/04 11:42:35;;;;;;;16.17;12.45;;;15.30;48.90;;;;;;5037203;28;20044;-77
2022/03/04 11:45:02;;;;;;;15.85;12.05;;;15.30;50.40;;;;;;5020856;28;20045;-76
2022/03/04 11:47:29;;;;;;;14.93;12.45;;;15.40;50.20;;;;;;5037402;28;20085;-76
2022/03/04 11:49:55;;;;;;;14.88;12.25;;;15.50;49.70;;;;;;5037091;28;20063;-76
2022/03/04 11:52:21;;;;;;;15.23;12.60;;;15.50;49.50;;;;;;5020543;28;20045;-77
2022/03/04 11:54:50;;;;;;;16.25;12.70;;;15.60;49.70;;;;;;5037249;28;20083;-77
2022/03/04 11:57:21;;;;;;;15.70;12.48;;;15.70;49.30;;;;;;5020824;28;20040;-77
2022/03/04 11:59:58;;;;;;;13.98;11.38;;;15.70;49.30;;;;;;5037000;28;20518;-76
2022/03/04 12:02:29;;;;;;;11.48;9.98;;;15.70;47.40;;;;;;5036763;28;20068;-76
2022/03/04 12:05:15;;;;;;;15.13;12.48;;;15.70;47.80;;;;;;5036840;28;20045;-77
2022/03/04 12:07:42;;;;;;;14.30;11.35;;;15.80;46.90;;;;;;5003840;28;20103;-77
2022/03/04 12:10:13;;;;;;;15.88;12.15;;;15.60;47.50;;;;;;5036933;28;20037;-76
2022/03/04 12:12:39;;;;;;;14.05;11.15;;;15.70;47.80;;;;;;5036453;28;20499;-77
2022/03/04 12:15:17;;;;;;;13.40;10.52;;;15.80;48.00;;;;;;5053243;28;20080;-77
2022/03/04 12:17:54;;;;;;;14.88;11.95;;;15.90;43.80;;;;;;5036903;28;20037;-77
2022/03/04 12:20:30;;;;;;;16.10;12.45;;;15.90;45.70;;;;;;5053091;28;20516;-76
2022/03/04 12:23:06;;;;;;;15.77;12.60;;;15.90;46.00;;;;;;5053406;28;20123;-76
2022/03/04 12:25:54;;;;;;;14.25;12.13;;;16.00;45.80;;;;;;5053102;28;20408;-77
2022/03/04 12:28:41;;;;;;;14.88;12.13;;;16.00;45.10;;;;;;5036385;28;20043;-77
2022/03/04 12:31:13;;;;;;;13.52;11.30;;;16.00;45.40;;;;;;5052923;28;20041;-78
2022/03/04 12:33:40;;;;;;;13.75;11.15;;;16.00;46.10;;;;;;5052871;28;20041;-76
2022/03/04 12:36:11;;;;;;;13.93;11.52;;;15.90;46.70;;;;;;5053180;28;20095;-78
2022/03/04 12:38:45;;;;;;;14.27;12.13;;;15.90;47.30;;;;;;5052898;28;20087;-78
2022/03/04 12:41:16;;;;;;;13.93;11.15;;;15.90;46.40;;;;;;5052886;28;20123;-77
2022/03/04 12:43:51;;;;;;;16.33;11.40;;;16.00;46.30;;;;;;5036473;28;20041;-77
2022/03/04 12:46:19;;;;;;;14.45;11.65;;;15.80;46.00;;;;;;5052294;28;20041;-78
2022/03/04 12:48:45;;;;;;;13.00;10.95;;;15.80;47.10;;;;;;5052701;28;20075;-78
2022/03/04 12:51:22;;;;;;;13.50;11.23;;;16.00;47.10;;;;;;5036077;28;20072;-78
2022/03/04 12:53:49;;;;;;;16.52;11.52;;;16.10;46.90;;;;;;5036015;28;20056;-78
2022/03/04 12:56:16;;;;;;;12.45;10.88;;;16.20;46.80;;;;;;5052785;28;20459;-78
2022/03/04 12:58:47;;;;;;;12.65;10.40;;;16.30;46.50;;;;;;5036143;28;20099;-78
2022/03/04 13:01:15;;;;;;;15.27;10.30;;;16.30;45.30;;;;;;5052482;28;20032;-78
2022/03/04 13:03:52;;;;;;;11.23;10.05;;;16.40;45.30;;;;;;5052378;28;20129;-78
2022/03/04 13:06:19;;;;;;;13.18;10.13;;;16.30;44.90;;;;;;5035985;28;20508;-78
2022/03/04 13:08:49;;;;;;;13.40;10.20;;;16.10;45.30;;;;;;5052676;28;20055;-78
2022/03/04 13:11:21;;;;;;;10.77;9.20;;;16.10;45.70;;;;;;5052130;28;20037;-78
2022/03/04 13:14:08;;;;;;;11.68;8.95;;;16.00;46.30;;;;;;5035658;28;20041;-78
2022/03/04 13:16:46;;;;;;;13.95;9.80;;;16.10;45.30;;;;;;5053231;28;20080;-78
2022/03/04 13:19:17;;;;;;;11.05;9.27;;;16.10;46.00;;;;;;5052355;28;20044;-78
2022/03/04 13:21:50;;;;;;;11.50;9.02;;;16.10;45.10;;;;;;5051995;28;20041;-78
2022/03/04 13:24:23;;;;;;;12.30;8.85;;;15.90;45.70;;;;;;5052230;28;20037;-77
2022/03/04 13:26:59;;;;;;;;;;;15.80;45.90;;;;;;5036047;28;20091;-78
2022/03/04 13:29:34;;;;;;;10.80;8.38;;;15.70;45.00;;;;;;5052412;28;19916;-78
2022/03/04 13:32:17;;;;;;;11.00;8.82;;;15.80;46.00;;;;;;5051820;28;20051;-78
2022/03/04 13:34:48;;;;;;;9.32;7.93;;;15.80;45.70;;;;;;5052328;28;20072;-78
2022/03/04 13:37:19;;;;;;;10.60;7.93;;;15.90;46.20;;;;;;5035870;28;20080;-79
2022/03/04 13:39:57;;;;;;;11.45;8.00;;;15.80;45.80;;;;;;5052263;28;20041;-78
2022/03/04 13:42:25;;;;;;;12.00;8.50;;;15.80;45.90;;;;;;5052200;28;20121;-78
2022/03/04 13:45:00;;;;;;;9.20;7.65;;;15.90;46.50;;;;;;5052284;28;20048;-78
2022/03/04 13:47:31;;;;;;;10.73;7.97;;;15.80;46.20;;;;;;5052542;28;20033;-78
2022/03/04 13:49:57;;;;;;;10.07;8.00;;;15.80;46.60;;;;;;5052476;28;20040;-78
2022/03/04 13:52:23;;;;;;;8.70;7.18;;;15.80;47.30;;;;;;5053283;28;20475;-78
2022/03/04 13:54:51;;;;;;;9.98;7.78;;;15.70;46.10;;;;;;5035677;28;20131;-78
2022/03/04 13:57:34;;;;;;;10.85;7.85;;;15.70;46.40;;;;;;5037383;28;20048;-78
2022/03/04 14:00:03;;;;;;;9.35;7.70;;;15.70;45.70;;;;;;5055998;28;20077;-78
2022/03/04 14:02:47;;;;;;;11.90;8.38;;;15.70;46.50;;;;;;5055913;28;20041;-78
2022/03/04 14:05:26;;;;;;;10.32;8.18;;;15.80;46.20;;;;;;5056142;28;20468;-78